Perla Del Mediterran — IJSM — position and weather

sailwx.info

Track history (hours):
 
Tides and Currents Weather Stations Pressure Air Temp Water Temp Dewpoint Dewpoint Depression Visibility Wind Speed Wind Dir Waves Ship Positions

Perla Del Mediterran

Last reported at 2018-Feb-16 12:36 UTC. Time now 2018-Feb-25 05:52 UTC.
Position N 36°58' E 014°02'.
Warning: this ship's position is 8 days out of date.

Length 16 m.

Type: Fishing. MMSI: 247304380.

Date/timePositionNaut miles runAvg speedWind from/ knotsBaromVisibWave heightAir tempDewpointWater temp
2018-Feb-16 12:36N 36°58' E 014°02'2 3.4
2018-Feb-16 12:06N 36°58' E 014°04'0 3.3
2018-Feb-16 12:00N 36°58' E 014°04'2 3.3
2018-Feb-16 11:30N 36°58' E 014°06'2 3.3
2018-Feb-16 11:00N 36°58' E 014°08'3 5.4
2018-Feb-16 10:30N 36°59' E 014°11'0 0.8
2018-Feb-16 10:00N 36°60' E 014°11'1 1.4
2018-Feb-16 09:30N 36°59' E 014°12'2 3.0
2018-Feb-16 09:00N 36°59' E 014°14'2 3.0
2018-Feb-16 08:30N 36°58' E 014°15'1 3.0
2018-Feb-16 08:00N 36°57' E 014°17'2 3.1
2018-Feb-16 07:30N 36°56' E 014°19'2 3.2
2018-Feb-16 06:59N 36°55' E 014°20'0 0.8
2018-Feb-16 06:30N 36°54' E 014°20'2 3.3
2018-Feb-16 06:00N 36°56' E 014°19'  
2018-Feb-12 06:40N 36°57' E 014°16'0 0.7
2018-Feb-12 06:30N 36°57' E 014°16'  
2018-Feb-08 10:30N 36°60' E 014°09'4 2.9
2018-Feb-08 09:00N 36°58' E 014°14'2 1.0
2018-Feb-08 06:30N 36°57' E 014°16'5 3.2
2018-Feb-08 05:00N 36°59' E 014°11'  
Track history (hours):
 
Tides and Currents Weather Stations Pressure Air Temp Water Temp Dewpoint Dewpoint Depression Visibility Wind Speed Wind Dir Waves Ship Positions

Perla Del Mediterran

Last reported at 2018-Feb-16 12:36 UTC. Time now 2018-Feb-25 05:52 UTC.
Position N 36°58' E 014°02'.
Warning: this ship's position is 8 days out of date.

Length 16 m.

Type: Fishing. MMSI: 247304380.

Date/timePositionNaut miles runAvg speedWind from/ knotsBaromVisibWave heightAir tempDewpointWater temp
2018-Feb-16 12:36N 36°58' E 014°02'2 3.4
2018-Feb-16 12:06N 36°58' E 014°04'0 3.3
2018-Feb-16 12:00N 36°58' E 014°04'2 3.3
2018-Feb-16 11:30N 36°58' E 014°06'2 3.3
2018-Feb-16 11:00N 36°58' E 014°08'3 5.4
2018-Feb-16 10:30N 36°59' E 014°11'0 0.8
2018-Feb-16 10:00N 36°60' E 014°11'1 1.4
2018-Feb-16 09:30N 36°59' E 014°12'2 3.0
2018-Feb-16 09:00N 36°59' E 014°14'2 3.0
2018-Feb-16 08:30N 36°58' E 014°15'1 3.0
2018-Feb-16 08:00N 36°57' E 014°17'2 3.1
2018-Feb-16 07:30N 36°56' E 014°19'2 3.2
2018-Feb-16 06:59N 36°55' E 014°20'0 0.8
2018-Feb-16 06:30N 36°54' E 014°20'2 3.3
2018-Feb-16 06:00N 36°56' E 014°19'  
2018-Feb-12 06:40N 36°57' E 014°16'0 0.7
2018-Feb-12 06:30N 36°57' E 014°16'  
2018-Feb-08 10:30N 36°60' E 014°09'4 2.9
2018-Feb-08 09:00N 36°58' E 014°14'2 1.0
2018-Feb-08 06:30N 36°57' E 014°16'5 3.2
2018-Feb-08 05:00N 36°59' E 014°11'  

Dump ship's entire track history